Bookmark and Share
Track history (hours):
 

Fort Pike

More information available from US FCC via Universal Licensing System and Coast Guard Vessel Documentation Center.

Last reported at 2014-Apr-14 23:32 UTC. Time now 2014-Apr-16 16:11 UTC.
Position N 36°59' W 076°27'.

Length 18 m; draft 10.5 m.

Type: Tug. MMSI: 366948310.

NotesDate/timePositionNaut miles runAvg speedWind from/ knotsBaromVisibWave heightAir tempDewpointWater temp
2014-Apr-14 23:32N 36°59' W 076°27'6 5.7
2014-Apr-14 22:33N 36°56' W 076°20'5 4.6
2014-Apr-14 21:32N 36°52' W 076°19'3 2.8
2014-Apr-14 20:33N 36°50' W 076°16'4 4.1
2014-Apr-14 19:33N 36°53' W 076°20'6 5.9
2014-Apr-14 18:31N 36°58' W 076°22'3 2.8
2014-Apr-14 17:33N 37°01' W 076°21'1 0.8
2014-Apr-14 16:33N 37°00' W 076°20'1 1.0
2014-Apr-14 15:33N 36°60' W 076°21'0 0.0
2014-Apr-14 14:34N 36°60' W 076°21'0 0.0
2014-Apr-14 13:34N 36°60' W 076°21'5 0.3
2014-Apr-13 22:22N 36°55' W 076°20'5 5.5
2014-Apr-13 21:33N 36°51' W 076°18'0 0.3
2014-Apr-13 20:33N 36°50' W 076°17'0 0.0
2014-Apr-13 19:33N 36°50' W 076°17'0 0.0
2014-Apr-13 18:34N 36°50' W 076°17'3 2.7
2014-Apr-13 17:33N 36°48' W 076°18'2 1.6
2014-Apr-13 16:33N 36°49' W 076°17'1 1.2
2014-Apr-13 15:32N 36°50' W 076°17'0 0.0
2014-Apr-13 14:25N 36°50' W 076°17'0 0.0
2014-Apr-13 13:33N 36°50' W 076°17'0 0.0
2014-Apr-13 11:27N 36°50' W 076°17'0 0.0
2014-Apr-13 10:32N 36°50' W 076°17'0 0.0
2014-Apr-13 09:15N 36°50' W 076°17'1 1.5
2014-Apr-13 08:18N 36°50' W 076°16'1 1.4
2014-Apr-13 07:29N 36°50' W 076°17'4 4.2
2014-Apr-13 06:33N 36°54' W 076°20'4 3.6
2014-Apr-13 05:34N 36°57' W 076°22'5 5.4
2014-Apr-13 04:33N 36°60' W 076°28'9 4.5
2014-Apr-13 02:33N 37°05' W 076°37'9 0.3
2014-Apr-11 23:33N 36°60' W 076°27'6 6.2
2014-Apr-11 22:33N 36°56' W 076°21'6 5.6
2014-Apr-11 21:24N 36°51' W 076°18'1 1.8
2014-Apr-11 20:33N 36°50' W 076°16'0 0.0
2014-Apr-11 19:32N 36°50' W 076°16'5 5.1
2014-Apr-11 18:32N 36°54' W 076°20'7 6.8
2014-Apr-11 17:33N 37°01' W 076°20'0 0.4
2014-Apr-11 16:33N 37°00' W 076°20'8 7.1
2014-Apr-11 15:28N 36°53' W 076°20'4 4.3
2014-Apr-11 14:33N 36°50' W 076°16'1 0.7
2014-Apr-11 13:33N 36°50' W 076°17'1 0.6
2014-Apr-11 12:33N 36°50' W 076°17'0 0.0
2014-Apr-11 11:33N 36°50' W 076°17'0 0.0
2014-Apr-11 09:30N 36°50' W 076°17'0 0.0
2014-Apr-11 08:33N 36°50' W 076°17'0 0.0
2014-Apr-11 03:33N 36°50' W 076°17'1 0.9
2014-Apr-11 02:31N 36°49' W 076°17'1 1.1
2014-Apr-11 01:33N 36°50' W 076°17'27 1.4
2014-Apr-10 06:23N 36°28' W 075°59'24 4.1
2014-Apr-10 00:30N 36°47' W 076°18'4 3.8
2014-Apr-09 23:30N 36°50' W 076°16'0 0.2
2014-Apr-09 22:16N 36°50' W 076°17'1 1.9
2014-Apr-09 21:31N 36°49' W 076°17'0 0.1
2014-Apr-09 20:33N 36°49' W 076°17'2 1.7
2014-Apr-09 19:30N 36°50' W 076°16'0 0.2
2014-Apr-09 18:33N 36°50' W 076°16'5 4.2
2014-Apr-09 17:25N 36°46' W 076°18'1 0.0
2014-Apr-08 15:33N 36°47' W 076°18'2 2.4
2014-Apr-08 14:33N 36°49' W 076°17'2 1.9
2014-Apr-08 13:33N 36°50' W 076°16'1 1.1
2014-Apr-08 12:34N 36°51' W 076°17'0 0.2
2014-Apr-08 11:19N 36°50' W 076°17'0 0.0
2014-Apr-08 10:18N 36°50' W 076°17'0 0.0
2014-Apr-08 09:31N 36°50' W 076°17'0 0.0
2014-Apr-08 08:31N 36°50' W 076°17'0 0.0
2014-Apr-08 07:07N 36°50' W 076°17'0 0.0
2014-Apr-08 06:31N 36°50' W 076°17'0 0.0
2014-Apr-08 05:30N 36°50' W 076°17'0 0.0
2014-Apr-08 04:19N 36°50' W 076°17'0 0.0
2014-Apr-08 03:25N 36°50' W 076°17'0 0.0
2014-Apr-08 02:31N 36°50' W 076°17'0 0.0
2014-Apr-08 01:28N 36°50' W 076°17'0 0.0
2014-Apr-08 00:27N 36°50' W 076°17'0 0.0
2014-Apr-07 23:31N 36°50' W 076°17'0 0.0
2014-Apr-07 21:25N 36°50' W 076°17'0 0.0
2014-Apr-07 19:21N 36°50' W 076°17'0 0.0
2014-Apr-07 17:27N 36°50' W 076°17'0 0.0
2014-Apr-07 16:33N 36°50' W 076°17'0 0.0
2014-Apr-07 15:27N 36°50' W 076°17'0 0.0
2014-Apr-07 14:31N 36°50' W 076°17'0 0.0
2014-Apr-07 13:33N 36°50' W 076°17'0 0.0
2014-Apr-07 12:30N 36°50' W 076°17'0 0.0
2014-Apr-07 11:31N 36°50' W 076°17'0 0.0
2014-Apr-07 09:34N 36°50' W 076°17'0 0.0
2014-Apr-07 08:21N 36°50' W 076°17'0 0.0
2014-Apr-07 05:15N 36°50' W 076°17'0 0.0
2014-Apr-07 04:24N 36°50' W 076°17'0 0.0
2014-Apr-07 03:04N 36°50' W 076°17'0 0.0
2014-Apr-07 02:30N 36°50' W 076°17'0 0.0
2014-Apr-07 01:30N 36°50' W 076°17'0 0.0
2014-Apr-06 23:31N 36°50' W 076°17'0 0.0
2014-Apr-06 21:30N 36°50' W 076°17'0 0.0
2014-Apr-06 20:33N 36°50' W 076°17'0 0.0
2014-Apr-06 19:13N 36°50' W 076°17'0 0.0
2014-Apr-06 18:21N 36°50' W 076°17'0 0.0
2014-Apr-06 17:25N 36°50' W 076°17'2 1.9
2014-Apr-06 16:33N 36°50' W 076°15'2 1.5
2014-Apr-06 15:29N 36°50' W 076°17'0 0.0
2014-Apr-06 13:32N 36°50' W 076°17'0 0.0
2014-Apr-06 12:32N 36°50' W 076°17'0 0.0
2014-Apr-06 11:32N 36°50' W 076°17'0 0.0
2014-Apr-06 10:32N 36°50' W 076°17'0 0.0
2014-Apr-06 08:17N 36°50' W 076°17'0 0.0
2014-Apr-06 06:29N 36°50' W 076°17'1 0.7
2014-Apr-06 05:33N 36°50' W 076°17'2 2.4
2014-Apr-06 04:33N 36°52' W 076°19'7 6.8
2014-Apr-06 03:33N 36°58' W 076°21'3 2.7
2014-Apr-06 02:32N 37°01' W 076°21'1 1.0
2014-Apr-06 01:33N 37°00' W 076°21'6 6.0
2014-Apr-06 00:33N 37°03' W 076°14'8 8.3
2014-Apr-05 23:33N 37°09' W 076°07'8 7.9
2014-Apr-05 22:31N 37°16' W 076°02'0 0.1
2014-Apr-05 21:07N 37°16' W 076°02'2 4.4
2014-Apr-05 20:33N 37°14' W 076°03'6 5.5
2014-Apr-05 19:33N 37°09' W 076°08'6 5.4
2014-Apr-05 18:32N 37°05' W 076°12'4 4.5
2014-Apr-05 17:33N 37°01' W 076°15'4 4.3
2014-Apr-05 16:33N 36°59' W 076°20'5 5.0
2014-Apr-05 15:33N 36°54' W 076°20'5 4.7
2014-Apr-05 14:32N 36°50' W 076°17'1 0.8
2014-Apr-05 13:33N 36°50' W 076°16'2 1.6
2014-Apr-05 12:33N 36°51' W 076°18'4 4.1
2014-Apr-05 11:33N 36°54' W 076°20'4 3.7
2014-Apr-05 10:34N 36°57' W 076°23'5 5.4
2014-Apr-05 09:34N 37°00' W 076°28'  

Dump ship's entire track history

sailing weather and tide predictions

Fort Pike — WAA9418 — position and weather